Nearby METAR Reports

 

EGGP - Liverpool Airpor, United Kingdom
Distance from station: ESE 7mi, 11km
Updated: 25/07/2021 13:20
Partly cloudy
Partly cloudy
 Wind from varies
Wind: varies 6 mph , 9 km/h
Temperature: 21°C
Dew Point: 12°C
Humidity: 57%
Barometer: 1009 hPa
Clouds: Partly cloudy
Visibility: 6 miles , 10 km
Cloud details: Partly cloudy 1036 m
2021/07/25 12:20 EGGP 251220Z VRB05KT 9999 SCT034 21/12 Q1009
EGNR - Hawarden (aut), United Kingdom
Distance from station: S 13mi, 20km
Updated: 25/07/2021 13:20
Partly cloudy
Partly cloudy
 Wind from NNW
Wind: NNW 6 mph , 9 km/h
Temperature: 21°C
Dew Point: 12°C
Humidity: 57%
Barometer: 1010 hPa
Clouds: Partly cloudy
Visibility: 6 miles , 10 km
Cloud details: Partly cloudy 1036 m
2021/07/25 12:20 EGNR 251220Z 34005KT 300V040 9999 SCT034 21/12 Q1010
EGOW - Woodvale Raf, United Kingdom
Distance from station: N 16mi, 26km
Updated: 23/07/2021 11:50
NOT Current
Clear
Clear
 Wind from ESE
Wind: ESE 10 mph , 17 km/h
Temperature: 25°C
Dew Point: 16°C
Humidity: 57%
Barometer: 1018 hPa
Summary: Clear
Visibility: greater than 7 miles , 10 km
2021/07/23 10:50 EGOW 231050Z 11009KT CAVOK 25/16 Q1018 RMK BLU
 
EGNO - Wharton, United Kingdom
Distance from station: N 28mi, 45km
Updated: 23/07/2021 16:50
NOT Current
Clear
Clear
 Wind from E
Wind: E 9 mph , 15 km/h
Temperature: 23°C
Dew Point: 15°C
Humidity: 61%
Barometer: 1015 hPa
Summary: Clear
Visibility: greater than 7 miles , 10 km
2021/07/23 15:50 EGNO 231550Z 10008KT CAVOK 23/15 Q1015
EGNH - Blackpool Airpor, United Kingdom
Distance from station: N 29mi, 47km
Updated: 25/07/2021 13:20
Few Clouds
Few Clouds
 Wind from NNW
Wind: NNW 14 mph , 22 km/h
Temperature: 21°C
Dew Point: 12°C
Humidity: 57%
Barometer: 1010 hPa
Clouds: Few Clouds
Visibility: 6 miles , 10 km
Cloud details: Few Clouds 914 m
2021/07/25 12:20 EGNH 251220Z 34012KT 300V020 9999 FEW030 21/12 Q1010
EGCC - Manchester Intl, United Kingdom
Distance from station: E 31mi, 49km
Updated: 25/07/2021 13:20
Mostly cloudy
Mostly cloudy
 Wind from varies
Wind: varies 3 mph , 6 km/h
Temperature: 20°C
Dew Point: 11°C
Humidity: 56%
Barometer: 1009 hPa
Clouds: Mostly cloudy
Visibility: 6 miles , 10 km
Cloud details: Mostly cloudy 1097 m
2021/07/25 12:20 EGCC 251220Z AUTO VRB03KT 9999 BKN036 20/11 Q1009
 
EGOS - Shawbury Raf, United Kingdom
Distance from station: SSE 40mi, 65km
Updated: 25/07/2021 12:50
Overcast
Overcast
 Wind from NNE
Wind: NNE 5 mph , 7 km/h
Temperature: 19°C
Dew Point: 12°C
Humidity: 64%
Barometer: 1009 hPa
Clouds: Overcast
Visibility: 6 miles , 10 km
Cloud details: Overcast 884 m
2021/07/25 11:50 EGOS 251150Z AUTO 02004KT 9999 OVC029/// 19/12 Q1009 RERA